Terminal Aerodrome Forecast
Issued by NWS Wilmington, OH

Current Version | Previous Version | Text Only | Print | Product List | Glossary Off
Versions: 1 2 3 4 5 6 7 8 9 10 11 12 13 14 15 16 17 18 19 20

000
FTUS41 KILN 121143
TAFILN
TAF
KILN 121143Z 1212/1312 31014G22KT 3SM -SHSN BKN015 OVC035
     FM121400 31016G24KT P6SM VCSH SCT022 OVC040
     FM121800 31018G26KT 5SM -SHSN BKN022 OVC040
      TEMPO 1218/1220 1SM -SHSN
     FM122100 30017G25KT P6SM VCSH OVC035
     FM130000 30014KT P6SM BKN035
     FM130700 26007KT P6SM SCT100=

USA.gov is the U.S. government's official web portal to all federal, state and local government web resources and services.